createdAt,value
2019-01-20T00:00:57.666Z,9.80
2019-01-20T00:03:24.531Z,10.70
2019-01-20T00:05:50.805Z,9.17
2019-01-20T00:08:17.400Z,11.07
2019-01-20T00:10:44.026Z,10.10
2019-01-20T00:13:10.665Z,10.40
2019-01-20T00:15:37.401Z,10.73
2019-01-20T00:18:03.782Z,10.30
2019-01-20T00:20:30.053Z,10.07
2019-01-20T00:22:56.710Z,10.07
2019-01-20T00:25:23.057Z,10.63
2019-01-20T00:27:49.812Z,10.20
2019-01-20T00:30:17.843Z,9.40
2019-01-20T00:32:44.482Z,10.40
2019-01-20T00:35:12.254Z,10.93
2019-01-20T00:37:39.903Z,11.83
2019-01-20T00:40:13.571Z,11.47
2019-01-20T00:42:39.882Z,10.80
2019-01-20T00:45:09.598Z,10.10
2019-01-20T00:47:35.869Z,10.57
2019-01-20T00:50:03.955Z,9.67
2019-01-20T00:52:32.510Z,10.67
2019-01-20T00:54:58.791Z,9.83
2019-01-20T00:57:25.417Z,12.10
2019-01-20T00:59:51.738Z,12.57
2019-01-20T01:02:19.936Z,12.57
2019-01-20T01:04:46.615Z,12.90
2019-01-20T01:07:13.288Z,12.53
2019-01-20T01:09:40.758Z,11.40
2019-01-20T01:12:07.022Z,10.23
2019-01-20T01:14:33.610Z,9.60
2019-01-20T01:16:59.945Z,10.33
2019-01-20T01:19:26.241Z,9.77
2019-01-20T01:21:52.742Z,10.37
2019-01-20T01:24:19.013Z,11.07
2019-01-20T01:26:45.644Z,9.87
2019-01-20T01:29:12.291Z,9.83
2019-01-20T01:31:38.558Z,10.60
2019-01-20T01:34:05.209Z,10.33
2019-01-20T01:36:31.483Z,9.33
2019-01-20T01:39:00.009Z,10.03
2019-01-20T01:41:26.307Z,9.83
2019-01-20T01:43:52.593Z,8.50
2019-01-20T01:46:19.222Z,9.87
2019-01-20T01:48:45.517Z,9.60
2019-01-20T01:51:11.829Z,9.43
2019-01-20T01:53:38.453Z,9.43
2019-01-20T01:56:05.061Z,10.07
2019-01-20T01:58:31.334Z,11.47
2019-01-20T02:00:57.594Z,10.20
2019-01-20T02:03:25.773Z,9.80
2019-01-20T02:05:52.043Z,9.97
2019-01-20T02:08:18.694Z,9.83
2019-01-20T02:10:44.970Z,9.87
2019-01-20T02:13:11.789Z,9.40
2019-01-20T02:15:38.446Z,10.13
2019-01-20T02:18:04.934Z,10.80
2019-01-20T02:20:31.670Z,11.40
2019-01-20T02:22:58.613Z,11.27
2019-01-20T02:25:25.237Z,11.40
2019-01-20T02:27:53.768Z,11.73
2019-01-20T02:30:21.971Z,11.23
2019-01-20T02:32:48.222Z,11.60
2019-01-20T02:35:14.618Z,11.60
2019-01-20T02:37:40.879Z,11.53
2019-01-20T02:40:10.370Z,10.30
2019-01-20T02:42:36.996Z,11.87
2019-01-20T02:45:04.949Z,13.00
2019-01-20T02:47:31.568Z,13.50
2019-01-20T02:49:58.198Z,11.07
2019-01-20T02:52:24.458Z,11.80
2019-01-20T02:54:51.216Z,10.57
2019-01-20T02:57:18.633Z,10.57
2019-01-20T02:59:45.546Z,10.63
2019-01-20T03:02:12.182Z,10.37
2019-01-20T03:04:38.833Z,9.50
2019-01-20T03:07:05.509Z,11.60
2019-01-20T03:09:31.838Z,9.90
2019-01-20T03:12:03.401Z,11.43
2019-01-20T03:14:26.605Z,11.83
2019-01-20T03:16:53.230Z,10.00
2019-01-20T03:19:19.633Z,10.53
2019-01-20T03:21:45.881Z,11.17
2019-01-20T03:24:12.142Z,11.67
2019-01-20T03:26:38.407Z,10.37
2019-01-20T03:29:05.014Z,9.63
2019-01-20T03:31:31.693Z,12.20
2019-01-20T03:33:58.310Z,10.97
2019-01-20T03:36:24.596Z,10.40
2019-01-20T03:38:50.862Z,10.93
2019-01-20T03:41:17.524Z,11.53
2019-01-20T03:43:44.196Z,11.83
2019-01-20T03:46:10.526Z,11.20
2019-01-20T03:48:37.143Z,11.00
2019-01-20T03:51:04.080Z,10.97
2019-01-20T03:53:30.742Z,10.57
2019-01-20T03:55:57.435Z,10.17
2019-01-20T03:58:23.705Z,12.63
2019-01-20T04:00:49.990Z,11.63
2019-01-20T04:03:16.267Z,11.73
2019-01-20T04:05:42.578Z,11.00
2019-01-20T04:08:09.194Z,10.33
2019-01-20T04:10:35.862Z,10.10
2019-01-20T04:13:02.544Z,10.40
2019-01-20T04:15:28.866Z,10.47
2019-01-20T04:17:55.130Z,10.40
2019-01-20T04:20:21.775Z,10.53
2019-01-20T04:22:48.185Z,10.03
2019-01-20T04:25:16.377Z,10.60
2019-01-20T04:27:43.084Z,12.53
2019-01-20T04:30:11.706Z,12.60
2019-01-20T04:32:38.323Z,11.97
2019-01-20T04:35:05.729Z,12.03
2019-01-20T04:37:31.985Z,11.13
2019-01-20T04:39:58.242Z,13.10
2019-01-20T04:42:28.930Z,12.37
2019-01-20T04:44:52.958Z,11.47
2019-01-20T04:47:19.649Z,11.43
2019-01-20T04:49:46.522Z,11.77
2019-01-20T04:52:12.842Z,11.37
2019-01-20T04:54:39.861Z,11.70
2019-01-20T04:57:06.184Z,10.73
2019-01-20T04:59:32.480Z,10.80
2019-01-20T05:01:58.790Z,13.13
2019-01-20T05:04:25.397Z,12.63
2019-01-20T05:06:52.035Z,12.43
2019-01-20T05:09:20.537Z,12.93
2019-01-20T05:11:47.178Z,11.80
2019-01-20T05:14:13.851Z,11.00
2019-01-20T05:16:40.078Z,12.30
2019-01-20T05:19:06.330Z,13.10
2019-01-20T05:21:32.874Z,12.30
2019-01-20T05:23:59.139Z,12.67
2019-01-20T05:26:25.740Z,12.37
2019-01-20T05:28:51.998Z,12.47
2019-01-20T05:31:18.281Z,12.23
2019-01-20T05:33:47.878Z,12.77
2019-01-20T05:36:14.545Z,14.37
2019-01-20T05:38:40.862Z,11.80
2019-01-20T05:41:07.453Z,14.20
2019-01-20T05:43:33.770Z,14.47
2019-01-20T05:46:00.091Z,13.33
2019-01-20T05:48:26.389Z,14.70
2019-01-20T05:50:53.073Z,14.13
2019-01-20T05:53:19.722Z,12.97
2019-01-20T05:55:46.015Z,12.67
2019-01-20T05:58:12.637Z,12.83
2019-01-20T06:00:38.902Z,12.23
2019-01-20T06:03:05.554Z,13.53
2019-01-20T06:05:31.827Z,12.37
2019-01-20T06:07:58.477Z,12.20
2019-01-20T06:10:25.186Z,12.00
2019-01-20T06:12:54.149Z,12.10
2019-01-20T06:15:21.286Z,12.10
2019-01-20T06:17:47.853Z,13.03
2019-01-20T06:20:14.720Z,12.27
2019-01-20T06:22:41.649Z,12.67
2019-01-20T06:25:08.776Z,12.87
2019-01-20T06:27:35.427Z,12.67
2019-01-20T06:30:03.997Z,11.70
2019-01-20T06:32:31.677Z,12.60
2019-01-20T06:34:57.940Z,11.87
2019-01-20T06:37:24.585Z,10.63
2019-01-20T06:39:51.494Z,11.27
2019-01-20T06:42:18.133Z,11.67
2019-01-20T06:44:44.398Z,13.20
2019-01-20T06:47:11.040Z,13.53
2019-01-20T06:49:37.649Z,11.50
2019-01-20T06:52:04.041Z,11.63
2019-01-20T06:54:30.973Z,12.53
2019-01-20T06:56:57.282Z,13.03
2019-01-20T06:59:23.898Z,12.23
2019-01-20T07:01:50.502Z,12.17
2019-01-20T07:04:17.129Z,11.97
2019-01-20T07:06:44.015Z,11.37
2019-01-20T07:09:10.695Z,11.67
2019-01-20T07:11:36.958Z,12.27
2019-01-20T07:14:03.360Z,11.30
2019-01-20T07:16:29.621Z,11.63
2019-01-20T07:18:55.910Z,12.90
2019-01-20T07:21:22.528Z,12.93
2019-01-20T07:23:49.177Z,13.03
2019-01-20T07:26:15.818Z,11.97
2019-01-20T07:28:42.104Z,12.60
2019-01-20T07:31:08.350Z,12.90
2019-01-20T07:33:34.638Z,12.20
2019-01-20T07:36:00.890Z,14.60
2019-01-20T07:38:27.521Z,13.20
2019-01-20T07:40:54.143Z,12.17
2019-01-20T07:43:20.786Z,13.37
2019-01-20T07:45:47.462Z,12.30
2019-01-20T07:48:13.685Z,13.03
2019-01-20T07:50:40.310Z,14.37
2019-01-20T07:53:06.590Z,13.93
2019-01-20T07:55:35.105Z,13.93
2019-01-20T07:58:01.749Z,13.63
2019-01-20T08:00:28.465Z,12.10
2019-01-20T08:02:54.968Z,11.97
2019-01-20T08:05:21.231Z,11.10
2019-01-20T08:07:48.053Z,14.03
2019-01-20T08:10:15.792Z,12.83
2019-01-20T08:12:42.149Z,12.27
2019-01-20T08:15:10.959Z,11.50
2019-01-20T08:17:37.599Z,12.40
2019-01-20T08:20:06.205Z,12.33
2019-01-20T08:22:32.486Z,12.60
2019-01-20T08:24:59.147Z,12.03
2019-01-20T08:27:25.770Z,11.97
2019-01-20T08:29:52.432Z,14.70
2019-01-20T08:32:19.082Z,12.73
2019-01-20T08:34:45.368Z,12.67
2019-01-20T08:37:11.646Z,13.73
2019-01-20T08:39:38.509Z,13.37
2019-01-20T08:42:05.117Z,12.70
2019-01-20T08:44:31.765Z,13.13
2019-01-20T08:46:58.781Z,12.70
2019-01-20T08:49:25.437Z,14.73
2019-01-20T08:51:52.084Z,14.10
2019-01-20T08:54:18.705Z,11.90
2019-01-20T08:56:44.945Z,12.27
2019-01-20T08:59:11.593Z,13.07
2019-01-20T09:01:38.213Z,12.27
2019-01-20T09:04:04.665Z,13.23
2019-01-20T09:06:32.823Z,11.93
2019-01-20T09:08:59.474Z,12.63
2019-01-20T09:11:26.870Z,12.67
2019-01-20T09:13:53.091Z,12.53
2019-01-20T09:16:19.359Z,13.13
2019-01-20T09:18:45.969Z,12.87
2019-01-20T09:21:12.633Z,12.70
2019-01-20T09:23:39.351Z,12.67
2019-01-20T09:26:06.020Z,12.10
2019-01-20T09:28:33.949Z,12.83
2019-01-20T09:31:00.359Z,12.27
2019-01-20T09:33:26.598Z,12.73
2019-01-20T09:35:53.555Z,13.87
2019-01-20T09:38:20.529Z,13.87
2019-01-20T09:40:47.192Z,12.80
2019-01-20T09:43:13.886Z,12.40
2019-01-20T09:45:40.825Z,13.50
2019-01-20T09:48:09.010Z,13.00
2019-01-20T09:50:35.673Z,11.77
2019-01-20T09:53:02.020Z,12.43
2019-01-20T09:55:28.979Z,13.77
2019-01-20T09:57:56.537Z,12.60
2019-01-20T10:00:27.661Z,12.70
2019-01-20T10:02:57.467Z,14.07
2019-01-20T10:05:24.133Z,12.93
2019-01-20T10:07:50.751Z,11.93
2019-01-20T10:10:17.506Z,13.73
2019-01-20T10:12:44.043Z,11.87
2019-01-20T10:15:12.089Z,13.17
2019-01-20T10:17:38.700Z,12.97
2019-01-20T10:20:10.166Z,13.30
2019-01-20T10:22:36.796Z,14.47
2019-01-20T10:25:04.222Z,13.93
2019-01-20T10:27:30.834Z,13.20
2019-01-20T10:29:57.486Z,13.20
2019-01-20T10:32:24.158Z,12.70
2019-01-20T10:34:51.837Z,15.30
2019-01-20T10:37:18.549Z,14.17
2019-01-20T10:39:45.077Z,14.53
2019-01-20T10:42:11.413Z,14.43
2019-01-20T10:44:37.694Z,13.97
2019-01-20T10:47:05.121Z,15.17
2019-01-20T10:49:31.374Z,13.33
2019-01-20T10:51:57.669Z,13.27
2019-01-20T10:54:25.197Z,13.57
2019-01-20T10:56:54.403Z,14.03
2019-01-20T10:59:21.159Z,14.10
2019-01-20T11:01:47.801Z,14.50
2019-01-20T11:04:15.570Z,12.30
2019-01-20T11:06:43.512Z,12.13
2019-01-20T11:09:10.202Z,13.10
2019-01-20T11:11:36.848Z,14.40
2019-01-20T11:14:09.359Z,14.00
2019-01-20T11:16:32.331Z,14.27
2019-01-20T11:18:58.971Z,14.87
2019-01-20T11:21:25.894Z,13.40
2019-01-20T11:23:52.770Z,11.63
2019-01-20T11:26:19.535Z,13.03
2019-01-20T11:28:46.171Z,13.17
2019-01-20T11:31:12.530Z,13.67
2019-01-20T11:33:38.829Z,12.80
2019-01-20T11:36:05.705Z,13.10
2019-01-20T11:38:32.349Z,13.90
2019-01-20T11:40:58.992Z,13.70
2019-01-20T11:43:25.257Z,14.87
2019-01-20T11:45:52.142Z,12.43
2019-01-20T11:48:18.992Z,12.90
2019-01-20T11:50:45.702Z,11.70
2019-01-20T11:53:12.313Z,13.50
2019-01-20T11:55:38.942Z,13.07
2019-01-20T11:58:07.371Z,11.90
2019-01-20T12:00:34.515Z,13.40
2019-01-20T12:03:02.172Z,11.10
2019-01-20T12:05:29.553Z,13.50
2019-01-20T12:07:55.806Z,13.37
2019-01-20T12:10:22.507Z,12.20
2019-01-20T12:12:53.455Z,12.00
2019-01-20T12:15:20.112Z,12.50
2019-01-20T12:17:46.925Z,13.17
2019-01-20T12:20:14.216Z,12.53
2019-01-20T12:22:42.358Z,12.77
2019-01-20T12:25:16.143Z,12.03
2019-01-20T12:27:42.426Z,10.87
2019-01-20T12:30:10.991Z,10.93
2019-01-20T12:32:38.621Z,12.33
2019-01-20T12:35:08.086Z,11.50
2019-01-20T12:37:34.707Z,11.13
2019-01-20T12:40:04.593Z,11.30
2019-01-20T12:42:30.893Z,14.07
2019-01-20T12:44:57.518Z,12.27
2019-01-20T12:47:24.175Z,12.13
2019-01-20T12:49:50.892Z,12.73
2019-01-20T12:52:17.578Z,11.97
2019-01-20T12:54:44.266Z,13.13
2019-01-20T12:57:11.353Z,12.83
2019-01-20T12:59:38.066Z,11.07
2019-01-20T13:02:04.738Z,11.93
2019-01-20T13:04:31.388Z,9.90
2019-01-20T13:06:58.009Z,9.77
2019-01-20T13:09:24.932Z,11.20
2019-01-20T13:11:51.558Z,10.90
2019-01-20T13:14:18.232Z,10.37
2019-01-20T13:16:44.924Z,12.27
2019-01-20T13:19:11.261Z,10.63
2019-01-20T13:21:37.823Z,10.80
2019-01-20T13:24:04.110Z,12.87
2019-01-20T13:26:30.798Z,11.63
2019-01-20T13:28:58.676Z,13.03
2019-01-20T13:31:25.729Z,11.33
2019-01-20T13:33:52.180Z,12.20
2019-01-20T13:36:18.901Z,12.10
2019-01-20T13:38:45.849Z,12.17
2019-01-20T13:41:13.091Z,10.47
2019-01-20T13:43:39.674Z,12.90
2019-01-20T13:46:06.353Z,12.57
2019-01-20T13:48:33.033Z,13.80
2019-01-20T13:50:59.454Z,12.63
2019-01-20T13:53:26.375Z,11.53
2019-01-20T13:55:53.036Z,13.20
2019-01-20T13:58:20.932Z,12.27
2019-01-20T14:00:47.612Z,12.27
2019-01-20T14:03:14.399Z,12.33
2019-01-20T14:05:40.705Z,13.90
2019-01-20T14:08:07.490Z,14.90
2019-01-20T14:10:33.802Z,15.43
2019-01-20T14:13:00.122Z,12.93
2019-01-20T14:15:26.821Z,13.13
2019-01-20T14:17:53.509Z,12.90
2019-01-20T14:20:21.540Z,13.50
2019-01-20T14:22:48.301Z,14.67
2019-01-20T14:25:16.026Z,12.57
2019-01-20T14:27:42.770Z,14.13
2019-01-20T14:30:11.566Z,14.63
2019-01-20T14:32:37.840Z,14.00
2019-01-20T14:35:06.852Z,14.47
2019-01-20T14:37:33.492Z,14.83
2019-01-20T14:40:00.243Z,14.33
2019-01-20T14:42:26.858Z,15.57
2019-01-20T14:44:53.225Z,14.87
2019-01-20T14:47:19.889Z,19.60
2019-01-20T14:49:46.160Z,22.65
2019-01-20T14:52:12.785Z,17.17
2019-01-20T14:54:39.051Z,16.47
2019-01-20T14:57:05.766Z,15.07
2019-01-20T14:59:32.446Z,12.77
2019-01-20T15:01:58.705Z,12.97
2019-01-20T15:04:25.345Z,13.70
2019-01-20T15:06:51.606Z,14.03
2019-01-20T15:09:18.250Z,17.60
2019-01-20T15:11:44.869Z,16.57
2019-01-20T15:14:11.523Z,14.93
2019-01-20T15:16:38.154Z,13.27
2019-01-20T15:19:04.826Z,14.30
2019-01-20T15:21:31.438Z,13.00
2019-01-20T15:23:58.339Z,12.47
2019-01-20T15:26:24.598Z,14.00
2019-01-20T15:28:51.258Z,14.20
2019-01-20T15:31:17.538Z,11.37
2019-01-20T15:33:44.250Z,11.70
2019-01-20T15:36:10.866Z,12.97
2019-01-20T15:38:37.533Z,14.00
2019-01-20T15:41:04.157Z,13.43
2019-01-20T15:43:30.786Z,14.07
2019-01-20T15:45:57.461Z,12.93
2019-01-20T15:48:24.082Z,12.73
2019-01-20T15:50:50.801Z,13.07
2019-01-20T15:53:17.430Z,15.07
2019-01-20T15:55:44.342Z,13.47
2019-01-20T15:58:10.978Z,11.53
2019-01-20T16:00:37.568Z,11.07
2019-01-20T16:03:04.335Z,12.23
2019-01-20T16:05:32.066Z,11.70
2019-01-20T16:07:58.725Z,12.73
2019-01-20T16:10:25.528Z,13.10
2019-01-20T16:12:51.837Z,12.30
2019-01-20T16:15:24.274Z,13.83
2019-01-20T16:26:40.453Z,14.80
2019-01-20T16:29:24.864Z,13.33
2019-01-20T16:46:56.373Z,12.53
2019-01-20T17:07:09.570Z,13.57
2019-01-20T17:12:54.768Z,15.57
2019-01-20T17:24:31.872Z,13.50
2019-01-20T17:27:09.662Z,13.07
2019-01-20T17:29:55.555Z,14.57
2019-01-20T17:35:06.940Z,13.77
2019-01-20T17:37:56.006Z,13.90
2019-01-20T17:43:19.642Z,15.13
2019-01-20T17:45:56.175Z,13.70
2019-01-20T17:54:16.626Z,14.67
2019-01-20T18:16:56.001Z,13.90
2019-01-20T18:19:22.679Z,16.70
2019-01-20T18:21:50.190Z,15.87
2019-01-20T18:24:16.877Z,16.10
2019-01-20T18:26:43.553Z,16.13
2019-01-20T18:29:09.874Z,14.90
2019-01-20T18:31:36.198Z,16.07
2019-01-20T18:34:03.082Z,16.20
2019-01-20T18:36:29.721Z,16.63
2019-01-20T18:38:56.520Z,14.40
2019-01-20T18:41:23.287Z,16.03
2019-01-20T18:43:49.553Z,15.67
2019-01-20T18:46:16.194Z,15.23
2019-01-20T18:48:42.882Z,15.80
2019-01-20T18:51:09.639Z,16.93
2019-01-20T18:53:36.593Z,18.20
2019-01-20T18:56:03.350Z,16.13
2019-01-20T19:26:54.986Z,18.40
2019-01-20T19:29:32.606Z,20.57
2019-01-20T19:43:51.889Z,17.30
2019-01-20T19:52:30.844Z,18.50
2019-01-20T19:55:02.317Z,17.27
2019-01-20T20:00:36.685Z,17.50
2019-01-20T20:03:26.236Z,18.90
2019-01-20T20:06:21.527Z,21.57
2019-01-20T20:09:14.698Z,19.67
2019-01-20T20:12:05.999Z,15.43
2019-01-20T20:14:43.776Z,15.63
2019-01-20T20:17:35.005Z,16.73
2019-01-20T20:20:14.120Z,15.97
2019-01-20T20:23:11.484Z,14.10
2019-01-20T20:26:02.911Z,15.27
2019-01-20T20:28:50.029Z,15.87
2019-01-20T20:31:34.118Z,16.97
2019-01-20T20:37:10.974Z,20.90
2019-01-20T20:39:52.501Z,16.33
2019-01-20T20:42:25.816Z,19.93
2019-01-20T20:50:55.040Z,16.40
2019-01-20T21:43:56.950Z,15.80
2019-01-20T21:46:26.139Z,17.07
2019-01-20T21:48:52.831Z,16.87
2019-01-20T21:51:19.961Z,17.50
2019-01-20T21:53:46.605Z,18.33
2019-01-20T21:56:15.330Z,17.60
2019-01-20T21:58:44.896Z,17.60
2019-01-20T22:01:12.125Z,18.43
2019-01-20T22:03:39.219Z,19.33
2019-01-20T22:06:06.706Z,17.23
2019-01-20T22:08:35.727Z,17.67
2019-01-20T22:11:02.887Z,16.90
2019-01-20T22:13:30.181Z,18.10
2019-01-20T22:15:57.051Z,16.60
2019-01-20T22:18:23.670Z,18.63
2019-01-20T22:20:51.218Z,17.80
2019-01-20T22:23:17.864Z,16.27
2019-01-20T22:25:44.189Z,17.43
2019-01-20T22:28:10.873Z,16.80
2019-01-20T22:30:37.572Z,15.73
2019-01-20T22:33:04.245Z,14.57
2019-01-20T22:35:30.528Z,16.67
2019-01-20T22:37:57.198Z,15.73
2019-01-20T22:40:23.616Z,17.13
2019-01-20T22:42:49.927Z,16.87
2019-01-20T22:45:17.814Z,18.20
2019-01-20T22:47:44.500Z,17.57
2019-01-20T22:50:12.036Z,17.30
2019-01-20T22:52:38.525Z,18.60
2019-01-20T22:55:07.849Z,16.93
2019-01-20T22:57:34.529Z,16.13
2019-01-20T23:00:01.055Z,15.67
2019-01-20T23:02:29.273Z,15.23
2019-01-20T23:04:55.946Z,16.93
2019-01-20T23:07:22.266Z,17.77
2019-01-20T23:09:48.589Z,17.30
2019-01-20T23:12:16.591Z,18.03
2019-01-20T23:14:43.561Z,17.23
2019-01-20T23:17:11.041Z,16.90
2019-01-20T23:19:37.364Z,17.40
2019-01-20T23:22:07.141Z,16.97
2019-01-20T23:24:33.818Z,16.60
2019-01-20T23:27:00.139Z,16.63
2019-01-20T23:29:26.455Z,17.87
2019-01-20T23:31:53.214Z,17.93
2019-01-20T23:34:19.893Z,17.63
2019-01-20T23:36:46.530Z,19.77
2019-01-20T23:39:13.225Z,18.57
2019-01-20T23:41:39.905Z,19.77
2019-01-20T23:44:06.228Z,19.83
2019-01-20T23:46:32.901Z,17.00
2019-01-20T23:48:59.225Z,18.83
2019-01-20T23:51:25.563Z,19.07
2019-01-20T23:53:52.370Z,18.23
2019-01-20T23:56:19.046Z,19.03
2019-01-20T23:58:45.713Z,17.70
